createdAt,value
2022-12-28T00:00:02.709Z,7.97
2022-12-28T00:02:42.257Z,10.60
2022-12-28T00:05:11.317Z,6.83
2022-12-28T00:07:39.720Z,11.53
2022-12-28T00:10:08.817Z,9.27
2022-12-28T00:12:37.304Z,7.57
2022-12-28T00:15:06.503Z,8.73
2022-12-28T00:17:34.921Z,7.63
2022-12-28T00:20:05.094Z,9.17
2022-12-28T00:22:33.548Z,9.50
2022-12-28T00:25:02.000Z,6.93
2022-12-28T00:27:30.457Z,7.90
2022-12-28T00:30:00.709Z,7.67
2022-12-28T00:32:30.041Z,11.57
2022-12-28T00:34:58.493Z,8.20
2022-12-28T00:37:29.484Z,8.27
2022-12-28T00:39:57.985Z,6.50
2022-12-28T00:42:26.458Z,21.97
2022-12-28T00:44:55.014Z,6.93
2022-12-28T00:47:23.457Z,7.23
2022-12-28T00:49:51.907Z,11.83
2022-12-28T00:52:20.322Z,6.70
2022-12-28T00:54:50.305Z,7.50
2022-12-28T00:57:18.784Z,8.50
2022-12-28T00:59:47.302Z,6.10
2022-12-28T01:02:15.804Z,5.80
2022-12-28T01:04:44.211Z,7.67
2022-12-28T01:07:12.757Z,6.20
2022-12-28T01:09:42.206Z,5.87
2022-12-28T01:12:12.008Z,5.17
2022-12-28T01:14:40.554Z,4.80
2022-12-28T01:17:09.076Z,9.30
2022-12-28T01:19:37.678Z,7.40
2022-12-28T01:22:06.350Z,7.63
2022-12-28T01:24:34.874Z,6.00
2022-12-28T01:27:03.350Z,4.27
2022-12-28T01:29:33.899Z,5.93
2022-12-28T01:32:02.461Z,7.63
2022-12-28T01:34:31.060Z,4.23
2022-12-28T01:36:59.470Z,4.97
2022-12-28T01:39:29.223Z,7.43
2022-12-28T01:41:57.928Z,4.67
2022-12-28T01:44:46.868Z,4.13
2022-12-28T01:47:25.229Z,6.20
2022-12-28T01:50:00.182Z,4.63
2022-12-28T01:52:34.084Z,5.03
2022-12-28T01:55:08.777Z,4.40
2022-12-28T01:57:43.183Z,4.63
2022-12-28T02:00:16.215Z,4.20
2022-12-28T02:02:53.580Z,7.67
2022-12-28T02:05:25.770Z,4.27
2022-12-28T02:07:58.836Z,4.23
2022-12-28T02:10:41.639Z,4.30
2022-12-28T02:13:14.313Z,3.90
2022-12-28T02:15:45.045Z,4.70
2022-12-28T02:18:15.762Z,4.90
2022-12-28T02:21:00.642Z,4.43
2022-12-28T02:23:40.181Z,3.97
2022-12-28T02:26:36.747Z,4.53
2022-12-28T02:29:27.864Z,4.13
2022-12-28T02:32:04.125Z,4.43
2022-12-28T02:34:39.425Z,5.73
2022-12-28T02:37:16.675Z,4.23
2022-12-28T02:39:51.335Z,5.33
2022-12-28T02:42:21.751Z,4.50
2022-12-28T02:45:08.948Z,5.70
2022-12-28T02:47:55.101Z,4.10
2022-12-28T02:50:29.426Z,4.50
2022-12-28T02:53:30.423Z,4.17
2022-12-28T02:56:14.600Z,4.17
2022-12-28T02:59:16.433Z,4.10
2022-12-28T03:02:05.223Z,4.23
2022-12-28T03:04:46.625Z,4.33
2022-12-28T03:07:39.063Z,4.00
2022-12-28T03:10:15.735Z,5.07
2022-12-28T03:12:51.276Z,3.67
2022-12-28T03:15:30.780Z,7.03
2022-12-28T03:18:24.071Z,4.20
2022-12-28T03:21:14.308Z,3.50
2022-12-28T03:24:03.485Z,4.63
2022-12-28T03:26:52.123Z,4.27
2022-12-28T03:29:41.570Z,3.73
2022-12-28T03:32:11.368Z,5.73
2022-12-28T03:34:41.642Z,4.63
2022-12-28T03:37:15.244Z,5.33
2022-12-28T03:39:51.911Z,4.43
2022-12-28T03:42:45.710Z,6.50
2022-12-28T03:45:46.753Z,3.70
2022-12-28T03:48:11.680Z,4.20
2022-12-28T03:50:44.274Z,4.20
2022-12-28T03:53:19.186Z,4.20
2022-12-28T03:55:50.960Z,4.03
2022-12-28T03:58:22.563Z,5.20
2022-12-28T04:00:51.741Z,3.93
2022-12-28T04:03:22.545Z,4.03
2022-12-28T04:05:52.436Z,3.63
2022-12-28T04:08:21.790Z,4.10
2022-12-28T04:10:50.417Z,5.90
2022-12-28T04:13:18.924Z,4.20
2022-12-28T04:16:00.851Z,5.00
2022-12-28T04:18:32.059Z,3.87
2022-12-28T04:21:02.645Z,4.30
2022-12-28T04:23:32.747Z,6.07
2022-12-28T04:26:27.234Z,4.10
2022-12-28T04:29:00.840Z,4.67
2022-12-28T04:31:40.082Z,5.03
2022-12-28T04:34:12.701Z,5.80
2022-12-28T04:36:48.643Z,4.53
2022-12-28T04:39:20.335Z,4.63
2022-12-28T04:41:48.860Z,3.70
2022-12-28T04:44:17.341Z,4.57
2022-12-28T04:46:46.084Z,4.47
2022-12-28T04:49:14.715Z,4.10
2022-12-28T04:51:43.347Z,3.93
2022-12-28T04:54:14.997Z,3.83
2022-12-28T04:56:43.532Z,5.20
2022-12-28T04:59:11.958Z,5.20
2022-12-28T05:01:41.452Z,4.97
2022-12-28T05:04:10.358Z,4.10
2022-12-28T05:06:38.861Z,4.33
2022-12-28T05:09:07.296Z,5.43
2022-12-28T05:11:37.254Z,5.07
2022-12-28T05:14:05.728Z,8.20
2022-12-28T05:16:34.303Z,5.73
2022-12-28T05:19:02.859Z,6.60
2022-12-28T05:21:31.260Z,3.97
2022-12-28T05:24:00.064Z,4.23
2022-12-28T05:26:30.706Z,3.77
2022-12-28T05:29:00.833Z,4.87
2022-12-28T05:31:29.507Z,4.70
2022-12-28T05:33:58.115Z,4.87
2022-12-28T05:36:28.963Z,3.67
2022-12-28T05:38:58.081Z,5.60
2022-12-28T05:41:28.849Z,4.03
2022-12-28T05:44:00.807Z,4.10
2022-12-28T05:46:31.496Z,4.70
2022-12-28T05:49:00.597Z,4.57
2022-12-28T05:51:30.899Z,6.20
2022-12-28T05:54:00.835Z,7.50
2022-12-28T05:56:30.695Z,4.07
2022-12-28T05:59:02.757Z,4.53
2022-12-28T06:01:33.619Z,5.63
2022-12-28T06:04:03.449Z,10.40
2022-12-28T06:06:33.089Z,10.97
2022-12-28T06:09:01.990Z,6.40
2022-12-28T06:11:31.029Z,5.57
2022-12-28T06:14:02.655Z,6.97
2022-12-28T06:16:33.212Z,4.77
2022-12-28T06:19:05.944Z,4.87
2022-12-28T06:21:36.005Z,5.87
2022-12-28T06:24:06.421Z,7.00
2022-12-28T06:26:36.793Z,8.87
2022-12-28T06:29:06.798Z,5.50
2022-12-28T06:31:37.925Z,6.57
2022-12-28T06:34:08.101Z,5.80
2022-12-28T06:36:38.507Z,7.10
2022-12-28T06:39:10.351Z,7.03
2022-12-28T06:41:39.791Z,4.17
2022-12-28T06:44:10.732Z,4.80
2022-12-28T06:46:39.993Z,8.13
2022-12-28T06:49:08.518Z,5.93
2022-12-28T06:51:41.513Z,6.30
2022-12-28T06:54:10.905Z,6.23
2022-12-28T06:56:39.712Z,4.33
2022-12-28T06:59:09.590Z,5.63
2022-12-28T07:01:39.831Z,6.50
2022-12-28T07:04:10.467Z,7.13
2022-12-28T07:06:41.588Z,7.37
2022-12-28T07:09:13.657Z,16.23
2022-12-28T07:11:42.508Z,13.93
2022-12-28T07:14:12.790Z,8.97
2022-12-28T07:19:09.011Z,8.00
2022-12-28T07:21:40.380Z,9.90
2022-12-28T07:24:10.236Z,7.73
2022-12-28T07:26:39.469Z,11.47
2022-12-28T07:29:09.105Z,7.13
2022-12-28T07:31:45.440Z,7.53
2022-12-28T07:34:16.232Z,7.83
2022-12-28T07:36:45.123Z,6.90
2022-12-28T07:39:14.205Z,6.37
2022-12-28T07:41:42.979Z,9.33
2022-12-28T07:44:11.584Z,5.87
2022-12-28T07:46:41.628Z,6.27
2022-12-28T07:49:10.246Z,7.37
2022-12-28T07:51:40.047Z,7.90
2022-12-28T07:54:08.769Z,8.17
2022-12-28T07:59:07.080Z,5.40
2022-12-28T08:01:36.839Z,8.80
2022-12-28T08:04:08.280Z,8.00
2022-12-28T08:06:38.668Z,6.37
2022-12-28T08:09:08.394Z,6.67
2022-12-28T08:11:38.268Z,14.27
2022-12-28T08:14:08.083Z,15.53
2022-12-28T08:16:39.184Z,25.20
2022-12-28T08:19:10.468Z,18.27
2022-12-28T08:21:41.471Z,10.70
2022-12-28T08:24:11.342Z,18.13
2022-12-28T08:26:41.657Z,11.30
2022-12-28T08:29:12.998Z,12.63
2022-12-28T08:31:43.526Z,12.77
2022-12-28T08:34:17.536Z,17.53
2022-12-28T08:36:46.112Z,18.27
2022-12-28T08:39:15.160Z,17.30
2022-12-28T08:41:43.849Z,16.10
2022-12-28T08:44:12.276Z,19.23
2022-12-28T08:46:41.713Z,19.30
2022-12-28T08:49:10.422Z,17.43
2022-12-28T08:51:42.601Z,24.77
2022-12-28T08:54:12.090Z,16.70
2022-12-28T08:56:42.571Z,14.50
2022-12-28T08:59:12.955Z,15.83
2022-12-28T09:01:44.578Z,14.47
2022-12-28T09:04:15.864Z,15.10
2022-12-28T09:06:46.077Z,9.63
2022-12-28T09:09:17.491Z,9.00
2022-12-28T09:11:46.634Z,8.70
2022-12-28T09:14:22.618Z,12.67
2022-12-28T09:16:52.582Z,9.30
2022-12-28T09:19:21.502Z,6.70
2022-12-28T09:21:53.313Z,7.20
2022-12-28T09:24:22.658Z,11.73
2022-12-28T09:26:52.918Z,15.73
2022-12-28T09:29:21.743Z,9.77
2022-12-28T09:31:50.241Z,14.27
2022-12-28T09:37:09.700Z,12.37
2022-12-28T09:39:38.307Z,22.37
2022-12-28T09:42:13.610Z,15.93
2022-12-28T09:44:57.489Z,12.63
2022-12-28T09:47:36.626Z,18.97
2022-12-28T09:50:30.281Z,12.27
2022-12-28T09:53:20.972Z,35.73
2022-12-28T09:55:56.901Z,19.57
2022-12-28T09:58:25.781Z,15.40
2022-12-28T10:00:57.875Z,7.47
2022-12-28T10:03:28.727Z,10.37
2022-12-28T10:05:58.910Z,8.57
2022-12-28T10:08:31.300Z,10.43
2022-12-28T10:11:03.505Z,11.37
2022-12-28T10:13:54.002Z,11.63
2022-12-28T10:16:25.270Z,10.67
2022-12-28T10:18:54.206Z,11.10
2022-12-28T10:21:32.488Z,11.93
2022-12-28T10:26:58.802Z,15.87
2022-12-28T10:29:28.445Z,9.17
2022-12-28T10:32:01.917Z,12.27
2022-12-28T10:34:35.209Z,14.53
2022-12-28T10:37:14.347Z,18.23
2022-12-28T10:39:53.000Z,10.63
2022-12-28T10:42:26.025Z,14.47
2022-12-28T10:44:58.765Z,16.40
2022-12-28T10:47:34.168Z,14.63
2022-12-28T10:50:36.110Z,17.30
2022-12-28T10:52:59.047Z,16.53
2022-12-28T10:55:30.979Z,13.30
2022-12-28T10:58:34.226Z,13.90
2022-12-28T11:01:08.324Z,8.80
2022-12-28T11:03:38.855Z,14.83
2022-12-28T11:06:13.193Z,9.77
2022-12-28T11:08:43.338Z,11.03
2022-12-28T11:11:24.284Z,9.33
2022-12-28T11:13:57.934Z,17.83
2022-12-28T11:16:26.486Z,14.17
2022-12-28T11:18:55.128Z,12.23
2022-12-28T11:21:23.969Z,13.73
2022-12-28T11:23:53.467Z,25.37
2022-12-28T11:26:23.793Z,13.83
2022-12-28T11:28:53.888Z,18.43
2022-12-28T11:31:28.998Z,13.27
2022-12-28T11:34:03.520Z,10.17
2022-12-28T11:36:33.854Z,16.70
2022-12-28T11:39:34.246Z,17.77
2022-12-28T11:42:37.341Z,12.57
2022-12-28T11:44:53.871Z,15.67
2022-12-28T11:47:32.954Z,15.07
2022-12-28T11:50:42.429Z,16.63
2022-12-28T11:53:45.313Z,10.80
2022-12-28T11:56:16.746Z,12.70
2022-12-28T11:58:48.817Z,13.03
2022-12-28T12:01:43.531Z,11.53
2022-12-28T12:04:43.486Z,15.20
2022-12-28T12:07:31.520Z,11.10
2022-12-28T12:10:16.757Z,9.33
2022-12-28T12:12:54.620Z,14.87
2022-12-28T12:15:29.301Z,12.13
2022-12-28T12:18:03.839Z,14.63
2022-12-28T12:20:46.119Z,9.63
2022-12-28T12:23:29.363Z,11.17
2022-12-28T12:26:01.817Z,12.93
2022-12-28T12:28:42.034Z,10.40
2022-12-28T12:31:23.352Z,10.07
2022-12-28T12:33:53.807Z,8.97
2022-12-28T12:36:43.606Z,10.20
2022-12-28T12:39:38.341Z,13.17
2022-12-28T12:42:18.373Z,12.70
2022-12-28T12:44:57.684Z,12.93
2022-12-28T12:47:58.430Z,12.77
2022-12-28T12:50:47.831Z,16.87
2022-12-28T12:53:31.420Z,15.23
2022-12-28T12:56:08.105Z,13.20
2022-12-28T12:58:51.221Z,13.23
2022-12-28T13:01:34.713Z,14.17
2022-12-28T13:04:09.550Z,17.40
2022-12-28T13:06:41.697Z,19.10
2022-12-28T13:09:17.497Z,18.87
2022-12-28T13:11:46.428Z,18.43
2022-12-28T13:14:20.872Z,19.30
2022-12-28T13:16:53.804Z,16.00
2022-12-28T13:19:23.579Z,14.90
2022-12-28T13:21:53.089Z,19.20
2022-12-28T13:24:23.645Z,17.07
2022-12-28T13:26:52.635Z,17.30
2022-12-28T13:29:23.442Z,18.23
2022-12-28T13:31:53.308Z,21.20
2022-12-28T13:34:25.197Z,18.60
2022-12-28T13:36:56.801Z,19.43
2022-12-28T13:39:26.714Z,19.63
2022-12-28T13:41:56.361Z,16.30
2022-12-28T13:44:40.561Z,20.40
2022-12-28T13:47:18.608Z,19.57
2022-12-28T13:49:53.406Z,22.10
2022-12-28T13:52:27.274Z,17.53
2022-12-28T13:54:59.433Z,27.37
2022-12-28T13:57:49.011Z,21.33
2022-12-28T14:00:19.882Z,20.77
2022-12-28T14:02:52.112Z,24.80
2022-12-28T14:05:24.033Z,17.90
2022-12-28T14:07:54.489Z,16.40
2022-12-28T14:10:23.978Z,15.33
2022-12-28T14:12:54.361Z,19.10
2022-12-28T14:15:24.077Z,18.00
2022-12-28T14:17:54.408Z,18.60
2022-12-28T14:20:23.071Z,17.20
2022-12-28T14:22:51.664Z,13.30
2022-12-28T14:25:22.488Z,21.57
2022-12-28T14:27:59.170Z,21.77
2022-12-28T14:30:30.915Z,20.07
2022-12-28T14:33:22.267Z,22.80
2022-12-28T14:35:55.184Z,19.90
2022-12-28T14:38:26.708Z,17.27
2022-12-28T14:40:56.808Z,26.27
2022-12-28T14:43:27.166Z,19.57
2022-12-28T14:46:05.150Z,28.53
2022-12-28T14:51:31.968Z,29.67
2022-12-28T14:54:19.455Z,23.23
2022-12-28T14:56:52.155Z,23.93
2022-12-28T14:59:26.432Z,25.10
2022-12-28T15:00:26.240Z,34.97
2022-12-28T15:01:55.195Z,29.10
2022-12-28T15:04:35.293Z,42.63
2022-12-28T15:07:05.246Z,28.90
2022-12-28T15:09:33.749Z,28.60
2022-12-28T15:12:13.816Z,29.33
2022-12-28T15:14:44.092Z,19.67
2022-12-28T15:17:12.652Z,20.90
2022-12-28T15:19:43.801Z,27.27
2022-12-28T15:22:13.739Z,22.03
2022-12-28T15:24:45.505Z,30.97
2022-12-28T15:27:14.313Z,22.87
2022-12-28T15:32:31.949Z,21.73
2022-12-28T15:35:02.159Z,24.20
2022-12-28T15:37:30.717Z,24.13
2022-12-28T15:39:59.237Z,20.43
2022-12-28T15:42:28.036Z,24.87
2022-12-28T15:44:56.985Z,22.53
2022-12-28T15:47:25.745Z,21.97
2022-12-28T15:49:54.358Z,26.60
2022-12-28T15:52:24.803Z,28.43
2022-12-28T15:54:53.655Z,24.07
2022-12-28T15:57:22.291Z,22.83
2022-12-28T15:59:50.817Z,27.37
2022-12-28T16:02:20.342Z,32.73
2022-12-28T16:04:49.093Z,30.93
2022-12-28T16:07:19.763Z,33.17
2022-12-28T16:09:50.328Z,36.00
2022-12-28T16:12:18.840Z,36.00
2022-12-28T16:14:51.952Z,30.43
2022-12-28T16:17:20.555Z,23.10
2022-12-28T16:19:49.241Z,28.77
2022-12-28T16:22:17.825Z,30.17
2022-12-28T16:24:46.211Z,29.17
2022-12-28T16:27:16.059Z,30.17
2022-12-28T16:29:46.131Z,28.37
2022-12-28T16:32:14.633Z,30.97
2022-12-28T16:34:43.230Z,29.60
2022-12-28T16:37:11.885Z,29.70
2022-12-28T16:39:40.278Z,29.37
2022-12-28T16:42:08.653Z,33.17
2022-12-28T16:44:38.497Z,35.93
2022-12-28T16:47:07.426Z,38.30
2022-12-28T16:49:40.740Z,35.90
2022-12-28T16:52:09.307Z,36.60
2022-12-28T16:54:37.761Z,33.87
2022-12-28T16:57:09.426Z,31.70
2022-12-28T16:59:39.246Z,31.00
2022-12-28T17:02:08.621Z,30.53
2022-12-28T17:04:37.374Z,31.43
2022-12-28T17:07:06.654Z,33.33
2022-12-28T17:09:35.741Z,31.47
2022-12-28T17:12:04.193Z,39.60
2022-12-28T17:14:37.721Z,46.97
2022-12-28T17:17:08.512Z,45.43
2022-12-28T17:19:37.192Z,37.90
2022-12-28T17:22:06.638Z,35.83
2022-12-28T17:24:35.178Z,35.87
2022-12-28T17:27:08.380Z,34.17
2022-12-28T17:29:38.294Z,28.10
2022-12-28T17:32:09.894Z,33.90
2022-12-28T17:34:40.947Z,36.53
2022-12-28T17:37:09.467Z,28.40
2022-12-28T17:39:40.533Z,28.93
2022-12-28T17:42:10.348Z,32.73
2022-12-28T17:44:39.232Z,44.90
2022-12-28T17:47:11.761Z,51.80
2022-12-28T17:49:42.170Z,54.53
2022-12-28T17:52:13.579Z,55.00
2022-12-28T17:54:42.072Z,49.50
2022-12-28T17:57:11.315Z,54.03
2022-12-28T17:59:39.814Z,49.43
2022-12-28T18:02:12.794Z,50.83
2022-12-28T18:04:42.229Z,51.13
2022-12-28T18:07:10.710Z,45.00
2022-12-28T18:09:40.007Z,48.63
2022-12-28T18:12:08.641Z,45.67
2022-12-28T18:14:37.173Z,44.30
2022-12-28T18:17:05.796Z,45.80
2022-12-28T18:19:35.731Z,44.50
2022-12-28T18:22:04.506Z,44.80
2022-12-28T18:24:33.557Z,50.63
2022-12-28T18:27:02.510Z,45.27
2022-12-28T18:29:30.977Z,46.47
2022-12-28T18:31:59.426Z,50.60
2022-12-28T18:34:27.956Z,50.97
2022-12-28T18:36:57.806Z,45.33
2022-12-28T18:39:26.264Z,47.27
2022-12-28T18:41:54.665Z,49.17
2022-12-28T18:44:23.457Z,45.57
2022-12-28T18:46:52.905Z,48.67
2022-12-28T18:49:21.845Z,46.10
2022-12-28T18:51:50.348Z,41.13
2022-12-28T18:54:20.301Z,50.10
2022-12-28T18:56:48.771Z,47.03
2022-12-28T18:59:17.201Z,44.97
2022-12-28T19:04:34.722Z,42.07
2022-12-28T19:07:03.229Z,45.63
2022-12-28T19:09:33.132Z,47.43
2022-12-28T19:12:01.596Z,45.67
2022-12-28T19:14:30.026Z,45.17
2022-12-28T19:16:58.498Z,47.63
2022-12-28T19:19:27.193Z,44.10
2022-12-28T19:21:58.920Z,44.20
2022-12-28T19:24:28.951Z,40.57
2022-12-28T19:26:58.814Z,36.80
2022-12-28T19:29:29.825Z,35.40
2022-12-28T19:31:58.350Z,37.90
2022-12-28T19:34:26.919Z,28.90
2022-12-28T19:36:55.448Z,31.93
2022-12-28T19:39:24.013Z,30.90
2022-12-28T19:41:52.620Z,33.33
2022-12-28T19:44:22.571Z,34.23
2022-12-28T19:46:51.535Z,34.23
2022-12-28T19:49:20.068Z,32.17
2022-12-28T19:51:48.732Z,35.50
2022-12-28T19:54:17.397Z,33.03
2022-12-28T19:56:46.470Z,34.00
2022-12-28T19:59:15.146Z,34.20
2022-12-28T20:01:45.468Z,36.37
2022-12-28T20:04:14.689Z,40.83
2022-12-28T20:06:44.526Z,37.20
2022-12-28T20:09:14.147Z,33.10
2022-12-28T20:11:45.158Z,28.97
2022-12-28T20:14:21.671Z,28.53
2022-12-28T20:16:55.697Z,25.57
2022-12-28T20:19:25.055Z,28.83
2022-12-28T20:21:53.608Z,31.47
2022-12-28T20:24:22.046Z,28.27
2022-12-28T20:26:52.160Z,30.03
2022-12-28T20:29:22.508Z,27.13
2022-12-28T20:31:51.702Z,30.83
2022-12-28T20:34:21.605Z,29.30
2022-12-28T20:36:50.321Z,30.33
2022-12-28T20:39:18.789Z,33.20
2022-12-28T20:42:04.466Z,39.43
2022-12-28T20:44:34.332Z,34.93
2022-12-28T20:47:03.482Z,29.50
2022-12-28T20:49:35.853Z,29.13
2022-12-28T20:52:04.301Z,27.03
2022-12-28T20:54:32.694Z,28.30
2022-12-28T20:57:02.197Z,27.67
2022-12-28T20:59:30.668Z,28.37
2022-12-28T21:01:59.237Z,29.30
2022-12-28T21:04:28.125Z,31.80
2022-12-28T21:06:58.065Z,27.33
2022-12-28T21:09:26.526Z,24.77
2022-12-28T21:11:55.237Z,30.90
2022-12-28T21:14:23.731Z,32.60
2022-12-28T21:16:52.268Z,44.80
2022-12-28T21:19:21.499Z,36.23
2022-12-28T21:21:49.950Z,26.43
2022-12-28T21:24:19.896Z,29.70
2022-12-28T21:26:48.378Z,34.53
2022-12-28T21:29:20.616Z,45.77
2022-12-28T21:31:54.326Z,32.43
2022-12-28T21:34:23.008Z,51.40
2022-12-28T21:36:51.544Z,28.20
2022-12-28T21:39:21.759Z,31.23
2022-12-28T21:41:50.533Z,31.40
2022-12-28T21:44:21.352Z,28.63
2022-12-28T21:46:53.887Z,30.00
2022-12-28T21:49:22.518Z,33.90
2022-12-28T21:51:51.587Z,29.73
2022-12-28T21:54:23.069Z,32.10
2022-12-28T21:56:53.998Z,33.67
2022-12-28T21:59:23.766Z,35.60
2022-12-28T22:02:10.427Z,31.77
2022-12-28T22:05:02.454Z,28.47
2022-12-28T22:07:32.194Z,35.00
2022-12-28T22:10:19.561Z,30.23
2022-12-28T22:12:48.041Z,24.77
2022-12-28T22:15:36.068Z,32.97
2022-12-28T22:18:06.804Z,27.77
2022-12-28T22:20:36.246Z,28.90
2022-12-28T22:23:06.438Z,26.37
2022-12-28T22:25:36.969Z,30.13
2022-12-28T22:28:06.507Z,31.47
2022-12-28T22:30:36.770Z,27.53
2022-12-28T22:33:05.712Z,33.00
2022-12-28T22:35:34.235Z,33.07
2022-12-28T22:38:02.745Z,25.30
2022-12-28T22:40:31.184Z,29.30
2022-12-28T22:43:01.025Z,30.53
2022-12-28T22:45:29.446Z,38.37
2022-12-28T22:47:59.558Z,32.07
2022-12-28T22:50:29.383Z,30.53
2022-12-28T22:52:58.332Z,42.37
2022-12-28T22:55:26.924Z,25.60
2022-12-28T22:57:55.371Z,32.60
2022-12-28T23:00:25.649Z,21.93
2022-12-28T23:02:54.341Z,26.03
2022-12-28T23:05:22.924Z,26.10
2022-12-28T23:07:51.491Z,23.17
2022-12-28T23:10:20.046Z,26.27
2022-12-28T23:12:48.704Z,22.00
2022-12-28T23:15:16.400Z,22.77
2022-12-28T23:17:46.632Z,24.00
2022-12-28T23:20:32.587Z,20.10
2022-12-28T23:23:19.662Z,26.63
2022-12-28T23:26:05.862Z,19.13
2022-12-28T23:28:36.998Z,21.40
2022-12-28T23:31:06.195Z,21.53
2022-12-28T23:33:37.012Z,22.03
2022-12-28T23:36:06.462Z,20.67
2022-12-28T23:38:34.977Z,21.07
2022-12-28T23:41:24.895Z,21.27
2022-12-28T23:43:53.375Z,23.33
2022-12-28T23:46:21.867Z,21.50
2022-12-28T23:48:51.870Z,19.77
2022-12-28T23:51:20.720Z,19.23
2022-12-28T23:53:49.197Z,18.10
2022-12-28T23:56:17.651Z,18.73
2022-12-28T23:58:46.100Z,19.83
